createdAt,value
2018-08-22T00:00:03.455Z,70.61
2018-08-22T00:02:32.637Z,69.35
2018-08-22T00:05:01.805Z,70.38
2018-08-22T00:07:31.095Z,69.16
2018-08-22T00:10:00.195Z,68.49
2018-08-22T00:12:29.408Z,69.59
2018-08-22T00:14:58.608Z,71.38
2018-08-22T00:17:27.807Z,70.89
2018-08-22T00:19:56.913Z,69.85
2018-08-22T00:22:26.150Z,68.82
2018-08-22T00:24:55.208Z,70.00
2018-08-22T00:27:24.392Z,70.19
2018-08-22T00:29:53.488Z,71.95
2018-08-22T00:32:22.687Z,71.13
2018-08-22T00:34:51.774Z,71.63
2018-08-22T00:37:20.982Z,71.24
2018-08-22T00:39:50.175Z,70.90
2018-08-22T00:42:19.323Z,70.93
2018-08-22T00:44:48.463Z,71.89
2018-08-22T00:47:17.622Z,72.99
2018-08-22T00:49:46.761Z,72.68
2018-08-22T00:52:15.909Z,73.17
2018-08-22T00:54:45.080Z,72.02
2018-08-22T00:57:14.171Z,73.24
2018-08-22T00:59:43.299Z,74.06
2018-08-22T01:02:12.519Z,73.31
2018-08-22T01:04:41.611Z,73.47
2018-08-22T01:07:10.691Z,73.19
2018-08-22T01:09:39.939Z,72.71
2018-08-22T01:12:09.129Z,73.58
2018-08-22T01:14:38.411Z,73.93
2018-08-22T01:17:07.740Z,74.86
2018-08-22T01:19:36.879Z,74.78
2018-08-22T01:22:07.064Z,74.51
2018-08-22T01:24:36.183Z,76.09
2018-08-22T01:27:05.363Z,77.10
2018-08-22T01:29:34.731Z,76.57
2018-08-22T01:32:03.883Z,77.69
2018-08-22T01:34:33.023Z,76.82
2018-08-22T01:37:02.135Z,77.51
2018-08-22T01:39:31.327Z,76.85
2018-08-22T01:42:00.512Z,77.30
2018-08-22T01:44:29.577Z,77.21
2018-08-22T01:46:58.828Z,77.17
2018-08-22T01:49:28.523Z,77.89
2018-08-22T01:51:57.785Z,79.27
2018-08-22T01:54:26.945Z,78.93
2018-08-22T01:56:56.112Z,79.32
2018-08-22T01:59:25.217Z,79.17
2018-08-22T02:01:54.416Z,79.66
2018-08-22T02:04:23.596Z,79.54
2018-08-22T02:06:52.770Z,80.93
2018-08-22T02:09:21.867Z,80.60
2018-08-22T02:11:50.979Z,79.36
2018-08-22T02:14:20.212Z,78.31
2018-08-22T02:16:49.352Z,79.24
2018-08-22T02:19:18.472Z,80.16
2018-08-22T02:21:47.596Z,81.84
2018-08-22T02:24:16.728Z,81.94
2018-08-22T02:26:45.878Z,80.83
2018-08-22T02:29:14.980Z,81.04
2018-08-22T02:31:44.112Z,81.08
2018-08-22T02:34:13.298Z,83.72
2018-08-22T02:36:42.449Z,84.53
2018-08-22T02:39:11.538Z,85.12
2018-08-22T02:41:40.756Z,85.34
2018-08-22T02:44:10.071Z,85.50
2018-08-22T02:46:39.551Z,85.30
2018-08-22T02:49:13.056Z,85.20
2018-08-22T02:51:42.211Z,85.54
2018-08-22T02:54:11.497Z,86.30
2018-08-22T02:56:40.638Z,86.57
2018-08-22T02:59:09.772Z,87.16
2018-08-22T03:01:38.909Z,86.36
2018-08-22T03:04:07.979Z,86.14
2018-08-22T03:06:37.146Z,86.18
2018-08-22T03:09:07.488Z,86.43
2018-08-22T03:11:36.732Z,84.91
2018-08-22T03:14:05.914Z,85.69
2018-08-22T03:16:35.108Z,86.79
2018-08-22T03:19:04.212Z,87.64
2018-08-22T03:21:33.458Z,87.88
2018-08-22T03:24:02.539Z,87.83
2018-08-22T03:26:31.829Z,87.54
2018-08-22T03:29:00.935Z,87.79
2018-08-22T03:31:30.138Z,86.56
2018-08-22T03:33:59.229Z,86.32
2018-08-22T03:36:28.439Z,87.84
2018-08-22T03:38:57.625Z,89.00
2018-08-22T03:41:26.715Z,89.77
2018-08-22T03:43:55.934Z,89.79
2018-08-22T03:46:25.053Z,89.69
2018-08-22T03:48:54.205Z,88.45
2018-08-22T03:51:23.365Z,88.40
2018-08-22T03:53:52.593Z,89.06
2018-08-22T03:56:21.867Z,90.18
2018-08-22T03:58:50.972Z,90.47
2018-08-22T04:01:20.085Z,90.20
2018-08-22T04:03:49.293Z,89.78
2018-08-22T04:06:18.504Z,90.54
2018-08-22T04:08:47.618Z,91.59
2018-08-22T04:11:16.719Z,91.96
2018-08-22T04:13:45.918Z,90.97
2018-08-22T04:16:15.056Z,89.63
2018-08-22T04:18:44.132Z,89.47
2018-08-22T04:21:13.354Z,89.99
2018-08-22T04:23:42.460Z,90.57
2018-08-22T04:26:11.568Z,91.32
2018-08-22T04:28:40.664Z,91.08
2018-08-22T04:31:09.848Z,91.18
2018-08-22T04:33:38.932Z,91.22
2018-08-22T04:36:08.041Z,91.36
2018-08-22T04:38:37.233Z,91.00
2018-08-22T04:41:06.625Z,91.33
2018-08-22T04:43:35.814Z,91.70
2018-08-22T04:46:04.894Z,91.93
2018-08-22T04:48:34.045Z,91.63
2018-08-22T04:51:03.189Z,91.57
2018-08-22T04:53:32.420Z,91.72
2018-08-22T04:56:01.519Z,91.49
2018-08-22T04:58:30.633Z,91.68
2018-08-22T05:00:59.821Z,92.14
2018-08-22T05:03:28.917Z,92.44
2018-08-22T05:05:58.186Z,92.63
2018-08-22T05:08:27.293Z,92.55
2018-08-22T05:10:56.452Z,92.38
2018-08-22T05:13:25.593Z,92.09
2018-08-22T05:15:54.748Z,91.15
2018-08-22T05:18:23.952Z,91.12
2018-08-22T05:20:53.057Z,90.97
2018-08-22T05:23:22.171Z,91.13
2018-08-22T05:25:51.289Z,90.81
2018-08-22T05:28:20.662Z,90.83
2018-08-22T05:30:49.876Z,91.24
2018-08-22T05:33:18.970Z,90.75
2018-08-22T05:35:48.180Z,89.88
2018-08-22T05:38:17.378Z,89.66
2018-08-22T05:40:46.576Z,90.33
2018-08-22T05:43:15.660Z,89.84
2018-08-22T05:45:44.754Z,89.03
2018-08-22T05:48:13.968Z,89.09
2018-08-22T05:50:43.144Z,88.57
2018-08-22T05:53:12.346Z,88.23
2018-08-22T05:55:41.540Z,87.55
2018-08-22T05:58:10.764Z,87.10
2018-08-22T06:00:39.940Z,86.57
2018-08-22T06:03:09.064Z,85.28
2018-08-22T06:05:38.320Z,85.23
2018-08-22T06:08:07.544Z,85.50
2018-08-22T06:10:36.728Z,85.13
2018-08-22T06:13:05.948Z,84.27
2018-08-22T06:15:35.137Z,85.00
2018-08-22T06:18:04.216Z,84.82
2018-08-22T06:20:33.402Z,83.80
2018-08-22T06:23:02.575Z,82.91
2018-08-22T06:25:31.708Z,82.58
2018-08-22T06:28:00.880Z,82.29
2018-08-22T06:30:29.987Z,81.91
2018-08-22T06:32:59.167Z,81.53
2018-08-22T06:35:28.488Z,81.20
2018-08-22T06:37:57.588Z,80.61
2018-08-22T06:40:26.688Z,80.49
2018-08-22T06:42:55.878Z,79.75
2018-08-22T06:45:24.983Z,78.77
2018-08-22T06:47:55.396Z,77.89
2018-08-22T06:50:24.511Z,77.72
2018-08-22T06:52:53.691Z,78.30
2018-08-22T06:55:22.916Z,77.99
2018-08-22T06:57:52.167Z,77.08
2018-08-22T07:00:21.299Z,75.89
2018-08-22T07:02:50.501Z,76.64
2018-08-22T07:05:19.615Z,77.15
2018-08-22T07:07:48.793Z,76.32
2018-08-22T07:10:17.990Z,76.41
2018-08-22T07:12:47.185Z,76.95
2018-08-22T07:15:16.405Z,75.90
2018-08-22T07:17:45.485Z,74.49
2018-08-22T07:20:14.627Z,73.82
2018-08-22T07:22:43.757Z,75.10
2018-08-22T07:25:12.981Z,75.11
2018-08-22T07:27:42.181Z,74.66
2018-08-22T07:30:11.532Z,74.03
2018-08-22T07:32:40.681Z,74.62
2018-08-22T07:35:09.789Z,74.51
2018-08-22T07:37:38.955Z,73.24
2018-08-22T07:40:08.054Z,74.14
2018-08-22T07:42:37.252Z,72.49
2018-08-22T07:45:06.836Z,72.67
2018-08-22T07:47:35.940Z,71.52
2018-08-22T07:50:05.681Z,70.93
2018-08-22T07:52:34.772Z,68.55
2018-08-22T07:55:03.904Z,67.74
2018-08-22T07:57:33.062Z,68.10
2018-08-22T08:00:02.276Z,67.05
2018-08-22T08:02:31.406Z,66.84
2018-08-22T08:05:00.532Z,66.99
2018-08-22T08:07:29.740Z,66.38
2018-08-22T08:09:58.919Z,67.99
2018-08-22T08:12:32.337Z,68.98
2018-08-22T08:15:04.332Z,66.80
2018-08-22T08:17:33.581Z,67.35
2018-08-22T08:20:02.925Z,67.19
2018-08-22T08:22:32.172Z,67.13
2018-08-22T08:25:01.317Z,66.55
2018-08-22T08:27:30.480Z,67.62
2018-08-22T08:29:59.770Z,68.02
2018-08-22T08:32:29.035Z,67.46
2018-08-22T08:34:58.176Z,65.82
2018-08-22T08:37:27.340Z,66.65
2018-08-22T08:39:56.573Z,66.55
2018-08-22T08:42:25.661Z,64.20
2018-08-22T08:44:55.052Z,65.74
2018-08-22T08:47:24.438Z,64.43
2018-08-22T08:49:53.626Z,63.96
2018-08-22T08:52:22.696Z,62.80
2018-08-22T08:54:53.011Z,61.65
2018-08-22T08:57:22.281Z,63.42
2018-08-22T08:59:51.375Z,59.80
2018-08-22T09:02:20.578Z,60.97
2018-08-22T09:04:49.764Z,60.46
2018-08-22T09:07:18.925Z,59.58
2018-08-22T09:09:48.121Z,59.13
2018-08-22T09:12:17.258Z,59.16
2018-08-22T09:14:46.348Z,61.08
2018-08-22T09:17:15.686Z,59.74
2018-08-22T09:19:44.744Z,59.60
2018-08-22T09:22:13.949Z,58.72
2018-08-22T09:24:43.145Z,57.16
2018-08-22T09:27:12.345Z,56.10
2018-08-22T09:29:41.478Z,58.04
2018-08-22T09:32:10.656Z,57.07
2018-08-22T09:34:39.839Z,55.99
2018-08-22T09:37:08.973Z,56.85
2018-08-22T09:39:38.433Z,56.72
2018-08-22T09:42:07.521Z,56.04
2018-08-22T09:44:36.724Z,56.11
2018-08-22T09:47:05.844Z,53.36
2018-08-22T09:49:35.018Z,54.82
2018-08-22T09:52:04.217Z,55.10
2018-08-22T09:54:34.835Z,52.76
2018-08-22T09:57:03.964Z,53.73
2018-08-22T09:59:33.146Z,53.54
2018-08-22T10:02:02.328Z,47.11
2018-08-22T10:04:31.418Z,46.98
2018-08-22T10:07:00.549Z,46.58
2018-08-22T10:09:29.639Z,45.42
2018-08-22T10:11:59.947Z,45.29
2018-08-22T10:14:29.117Z,45.39
2018-08-22T10:16:58.250Z,44.55
2018-08-22T10:19:27.400Z,44.58
2018-08-22T10:21:56.625Z,43.21
2018-08-22T10:24:26.030Z,42.49
2018-08-22T10:26:55.160Z,42.86
2018-08-22T10:29:24.261Z,43.88
2018-08-22T10:31:53.540Z,44.51
2018-08-22T10:34:22.636Z,43.44
2018-08-22T10:36:51.766Z,43.54
2018-08-22T10:39:20.986Z,44.07
2018-08-22T10:41:50.036Z,44.30
2018-08-22T10:44:19.211Z,44.92
2018-08-22T10:46:48.384Z,42.62
2018-08-22T10:49:17.512Z,43.00
2018-08-22T10:51:46.607Z,42.24
2018-08-22T10:54:15.782Z,43.36
2018-08-22T10:56:44.980Z,40.84
2018-08-22T10:59:14.191Z,41.66
2018-08-22T11:01:43.280Z,42.22
2018-08-22T11:04:12.472Z,42.46
2018-08-22T11:06:41.668Z,42.52
2018-08-22T11:09:11.474Z,42.44
2018-08-22T11:11:40.780Z,41.60
2018-08-22T11:14:10.136Z,41.88
2018-08-22T11:16:39.295Z,40.65
2018-08-22T11:19:08.445Z,41.29
2018-08-22T11:21:48.787Z,42.05
2018-08-22T11:24:29.456Z,42.14
2018-08-22T11:27:09.976Z,41.24
2018-08-22T11:29:50.409Z,41.96
2018-08-22T11:32:30.861Z,40.58
2018-08-22T11:34:58.881Z,41.41
2018-08-22T11:37:28.008Z,42.10
2018-08-22T11:39:57.129Z,41.24
2018-08-22T11:42:26.262Z,39.50
2018-08-22T11:44:55.460Z,39.20
2018-08-22T11:47:24.565Z,41.07
2018-08-22T11:49:53.624Z,39.36
2018-08-22T11:52:22.700Z,39.59
2018-08-22T11:54:51.962Z,39.46
2018-08-22T11:57:21.062Z,37.91
2018-08-22T11:59:51.164Z,38.19
2018-08-22T12:02:20.356Z,38.50
2018-08-22T12:04:49.564Z,37.70
2018-08-22T12:07:18.721Z,36.39
2018-08-22T12:09:47.872Z,35.72
2018-08-22T12:12:16.932Z,37.23
2018-08-22T12:14:46.044Z,32.98
2018-08-22T12:17:15.235Z,33.88
2018-08-22T12:19:44.314Z,31.73
2018-08-22T12:22:13.516Z,33.20
2018-08-22T12:24:42.610Z,30.13
2018-08-22T12:27:11.796Z,29.87
2018-08-22T12:29:40.910Z,30.97
2018-08-22T12:32:10.070Z,29.47
2018-08-22T12:34:39.241Z,30.96
2018-08-22T12:37:08.448Z,28.54
2018-08-22T12:39:37.608Z,27.90
2018-08-22T12:42:06.704Z,26.73
2018-08-22T12:44:35.803Z,28.43
2018-08-22T12:47:04.971Z,28.24
2018-08-22T12:49:34.069Z,26.17
2018-08-22T12:52:03.217Z,25.89
2018-08-22T12:54:32.560Z,25.00
2018-08-22T12:57:01.776Z,25.53
2018-08-22T12:59:30.860Z,25.03
2018-08-22T13:02:00.071Z,25.26
2018-08-22T13:04:29.287Z,25.37
2018-08-22T13:06:58.446Z,25.12
2018-08-22T13:09:27.565Z,24.27
2018-08-22T13:11:56.771Z,25.41
2018-08-22T13:14:25.939Z,24.56
2018-08-22T13:16:55.052Z,24.12
2018-08-22T13:19:24.128Z,23.77
2018-08-22T13:21:53.280Z,23.73
2018-08-22T13:24:22.457Z,23.88
2018-08-22T13:26:51.523Z,24.12
2018-08-22T13:29:20.598Z,24.29
2018-08-22T13:31:49.844Z,23.33
2018-08-22T13:34:18.933Z,22.04
2018-08-22T13:36:48.224Z,23.51
2018-08-22T13:39:17.330Z,22.48
2018-08-22T13:41:46.392Z,21.98
2018-08-22T13:44:15.592Z,21.43
2018-08-22T13:46:44.813Z,22.90
2018-08-22T13:49:13.984Z,22.97
2018-08-22T13:51:43.195Z,22.42
2018-08-22T13:54:13.226Z,21.97
2018-08-22T13:56:42.362Z,21.98
2018-08-22T13:59:11.502Z,22.74
2018-08-22T14:01:40.740Z,21.83
2018-08-22T14:04:09.796Z,20.75
2018-08-22T14:06:38.980Z,21.64
2018-08-22T14:09:09.475Z,22.43
2018-08-22T14:11:38.638Z,22.13
2018-08-22T14:14:07.904Z,21.20
2018-08-22T14:16:37.122Z,21.05
2018-08-22T14:19:06.230Z,21.14
2018-08-22T14:21:35.365Z,21.57
2018-08-22T14:24:04.544Z,20.85
2018-08-22T14:26:33.702Z,18.84
2018-08-22T14:29:02.785Z,20.20
2018-08-22T14:31:32.172Z,20.26
2018-08-22T14:34:01.215Z,20.19
2018-08-22T14:36:30.345Z,19.00
2018-08-22T14:38:59.573Z,20.15
2018-08-22T14:41:28.689Z,19.00
2018-08-22T14:43:57.782Z,20.57
2018-08-22T14:46:26.959Z,20.81
2018-08-22T14:48:56.033Z,20.07
2018-08-22T14:51:25.277Z,19.97
2018-08-22T14:53:54.369Z,21.84
2018-08-22T14:56:23.734Z,20.30
2018-08-22T14:58:52.774Z,19.57
2018-08-22T15:01:21.872Z,20.57
2018-08-22T15:03:51.061Z,19.89
2018-08-22T15:06:20.461Z,20.32
2018-08-22T15:08:50.556Z,19.89
2018-08-22T15:11:19.678Z,21.29
2018-08-22T15:13:48.739Z,20.20
2018-08-22T15:16:17.944Z,20.98
2018-08-22T15:18:47.052Z,20.58
2018-08-22T15:21:16.248Z,20.36
2018-08-22T15:23:45.434Z,20.68
2018-08-22T15:26:14.653Z,20.11
2018-08-22T15:28:43.753Z,20.57
2018-08-22T15:31:13.151Z,19.34
2018-08-22T15:33:42.861Z,20.54
2018-08-22T15:36:11.941Z,21.32
2018-08-22T15:38:41.063Z,20.87
2018-08-22T15:41:10.156Z,21.04
2018-08-22T15:43:39.213Z,20.41
2018-08-22T15:46:08.357Z,19.89
2018-08-22T15:48:37.530Z,20.75
2018-08-22T15:51:06.625Z,22.18
2018-08-22T15:53:35.845Z,21.05
2018-08-22T15:56:05.033Z,22.08
2018-08-22T15:58:34.301Z,23.01
2018-08-22T16:01:03.397Z,21.68
2018-08-22T16:03:32.497Z,21.61
2018-08-22T16:06:01.671Z,21.05
2018-08-22T16:08:30.817Z,22.77
2018-08-22T16:11:04.077Z,22.14
2018-08-22T16:13:33.209Z,22.53
2018-08-22T16:16:03.001Z,23.24
2018-08-22T16:18:34.172Z,23.40
2018-08-22T16:21:04.378Z,23.28
2018-08-22T16:23:34.744Z,22.94
2018-08-22T16:26:05.020Z,23.37
2018-08-22T16:28:47.815Z,22.40
2018-08-22T16:31:17.109Z,23.42
2018-08-22T16:33:46.230Z,23.64
2018-08-22T16:36:19.299Z,24.33
2018-08-22T16:38:48.499Z,24.75
2018-08-22T16:41:18.122Z,24.56
2018-08-22T16:43:49.438Z,23.69
2018-08-22T16:46:18.487Z,23.22
2018-08-22T16:48:49.964Z,24.10
2018-08-22T16:51:19.626Z,24.32
2018-08-22T16:54:23.773Z,25.61
2018-08-22T16:56:52.935Z,26.01
2018-08-22T16:59:22.023Z,25.78
2018-08-22T17:01:51.891Z,25.45
2018-08-22T17:04:21.123Z,26.21
2018-08-22T17:06:50.339Z,26.41
2018-08-22T17:09:19.433Z,27.84
2018-08-22T17:11:48.529Z,28.03
2018-08-22T17:14:17.709Z,27.14
2018-08-22T17:16:46.847Z,29.46
2018-08-22T17:19:15.909Z,28.25
2018-08-22T17:21:45.013Z,28.67
2018-08-22T17:24:14.227Z,29.14
2018-08-22T17:26:43.309Z,28.60
2018-08-22T17:29:12.813Z,30.05
2018-08-22T17:31:42.413Z,31.83
2018-08-22T17:34:11.594Z,31.56
2018-08-22T17:36:40.708Z,33.79
2018-08-22T17:39:09.940Z,33.01
2018-08-22T17:41:39.100Z,33.88
2018-08-22T17:44:10.326Z,34.63
2018-08-22T17:46:41.710Z,34.45
2018-08-22T17:49:10.905Z,35.06
2018-08-22T17:51:55.665Z,35.98
2018-08-22T17:54:25.255Z,36.36
2018-08-22T17:57:06.297Z,35.92
2018-08-22T17:59:35.866Z,36.50
2018-08-22T18:02:05.045Z,36.62
2018-08-22T18:04:46.028Z,36.88
2018-08-22T18:07:15.968Z,37.28
2018-08-22T18:09:45.749Z,38.00
2018-08-22T18:12:14.996Z,37.36
2018-08-22T18:14:44.144Z,38.53
2018-08-22T18:17:13.335Z,38.09
2018-08-22T18:19:42.460Z,38.60
2018-08-22T18:22:11.608Z,38.45
2018-08-22T18:25:00.313Z,38.54
2018-08-22T18:27:29.573Z,39.99
2018-08-22T18:29:58.573Z,38.83
2018-08-22T18:32:27.789Z,39.99
2018-08-22T18:35:02.363Z,40.36
2018-08-22T18:37:32.190Z,40.18
2018-08-22T18:40:29.647Z,41.29
2018-08-22T18:43:00.900Z,41.71
2018-08-22T18:45:30.265Z,41.91
2018-08-22T18:48:00.980Z,41.83
2018-08-22T18:50:30.193Z,42.30
2018-08-22T18:53:00.428Z,42.67
2018-08-22T18:55:30.848Z,43.56
2018-08-22T18:58:02.468Z,43.74
2018-08-22T19:00:35.176Z,44.02
2018-08-22T19:03:04.227Z,44.13
2018-08-22T19:05:34.735Z,44.13
2018-08-22T19:08:12.454Z,44.58
2018-08-22T19:10:42.822Z,44.58
2018-08-22T19:13:17.045Z,45.73
2018-08-22T19:15:51.059Z,45.47
2018-08-22T19:18:20.354Z,45.80
2018-08-22T19:20:49.858Z,46.25
2018-08-22T19:23:19.140Z,46.37
2018-08-22T19:25:49.639Z,47.00
2018-08-22T19:28:18.988Z,47.84
2018-08-22T19:30:48.436Z,47.61
2018-08-22T19:33:20.040Z,48.26
2018-08-22T19:35:49.446Z,47.87
2018-08-22T19:38:20.398Z,48.39
2018-08-22T19:40:49.544Z,48.54
2018-08-22T19:43:18.633Z,48.27
2018-08-22T19:45:47.880Z,49.90
2018-08-22T19:48:16.995Z,49.21
2018-08-22T19:50:46.112Z,49.50
2018-08-22T19:53:15.210Z,49.52
2018-08-22T19:55:44.313Z,49.77
2018-08-22T19:58:15.324Z,49.99
2018-08-22T20:00:44.428Z,50.55
2018-08-22T20:03:15.589Z,50.82
2018-08-22T20:05:51.451Z,50.51
2018-08-22T20:08:25.304Z,51.05
2018-08-22T20:10:54.436Z,51.13
2018-08-22T20:13:23.561Z,51.83
2018-08-22T20:15:52.640Z,51.09
2018-08-22T20:18:21.746Z,51.41
2018-08-22T20:20:50.903Z,51.34
2018-08-22T20:23:20.850Z,51.61
2018-08-22T20:25:49.927Z,53.01
2018-08-22T20:28:19.026Z,52.53
2018-08-22T20:30:48.201Z,53.23
2018-08-22T20:33:17.285Z,53.14
2018-08-22T20:35:46.395Z,52.97
2018-08-22T20:38:15.489Z,53.06
2018-08-22T20:40:44.617Z,53.79
2018-08-22T20:43:21.129Z,53.11
2018-08-22T20:45:50.234Z,54.16
2018-08-22T20:48:19.348Z,54.45
2018-08-22T20:50:48.471Z,55.17
2018-08-22T20:53:18.045Z,55.33
2018-08-22T20:55:47.238Z,55.51
2018-08-22T20:58:20.441Z,55.73
2018-08-22T21:00:49.555Z,55.89
2018-08-22T21:03:18.905Z,56.18
2018-08-22T21:05:48.053Z,55.96
2018-08-22T21:08:17.231Z,56.19
2018-08-22T21:10:46.332Z,56.80
2018-08-22T21:13:20.621Z,55.93
2018-08-22T21:15:49.705Z,55.71
2018-08-22T21:18:18.837Z,56.56
2018-08-22T21:20:48.027Z,56.90
2018-08-22T21:23:17.085Z,57.16
2018-08-22T21:25:46.480Z,56.83
2018-08-22T21:28:15.684Z,57.50
2018-08-22T21:30:48.801Z,58.33
2018-08-22T21:33:17.993Z,57.80
2018-08-22T21:35:47.108Z,57.46
2018-08-22T21:38:18.240Z,57.19
2018-08-22T21:40:47.513Z,57.43
2018-08-22T21:43:16.843Z,57.14
2018-08-22T21:45:48.174Z,58.95
2018-08-22T21:48:19.197Z,59.45
2018-08-22T21:50:48.313Z,60.18
2018-08-22T21:53:17.456Z,60.10
2018-08-22T21:55:48.701Z,60.04
2018-08-22T21:58:17.898Z,59.71
2018-08-22T22:00:47.096Z,59.13
2018-08-22T22:03:20.431Z,58.05
2018-08-22T22:05:54.344Z,58.68
2018-08-22T22:08:23.752Z,59.68
2018-08-22T22:11:05.207Z,60.18
2018-08-22T22:13:34.289Z,60.12
2018-08-22T22:16:04.959Z,59.80
2018-08-22T22:18:34.898Z,59.48
2018-08-22T22:21:11.788Z,60.01
2018-08-22T22:23:46.273Z,60.28
2018-08-22T22:26:16.581Z,61.01
2018-08-22T22:28:45.696Z,59.70
2018-08-22T22:31:15.916Z,60.43
2018-08-22T22:33:48.629Z,61.04
2018-08-22T22:36:17.834Z,61.21
2018-08-22T22:38:46.911Z,61.96
2018-08-22T22:41:16.033Z,61.73
2018-08-22T22:43:45.234Z,62.62
2018-08-22T22:46:14.333Z,63.76
2018-08-22T22:48:44.219Z,63.09
2018-08-22T22:51:13.335Z,63.39
2018-08-22T22:53:42.432Z,63.67
2018-08-22T22:56:11.605Z,64.02
2018-08-22T22:58:40.908Z,64.46
2018-08-22T23:01:10.028Z,65.16
2018-08-22T23:03:40.944Z,65.40
2018-08-22T23:06:10.155Z,66.30
2018-08-22T23:08:39.233Z,65.64
2018-08-22T23:11:08.327Z,65.25
2018-08-22T23:13:37.527Z,65.43
2018-08-22T23:16:06.624Z,66.14
2018-08-22T23:18:35.860Z,66.37
2018-08-22T23:21:04.966Z,66.60
2018-08-22T23:23:37.770Z,67.59
2018-08-22T23:26:14.024Z,67.70
2018-08-22T23:28:44.257Z,69.23
2018-08-22T23:31:17.570Z,68.37
2018-08-22T23:33:46.685Z,68.48
2018-08-22T23:36:15.880Z,68.84
2018-08-22T23:38:45.088Z,69.48
2018-08-22T23:41:14.199Z,70.19
2018-08-22T23:43:50.476Z,70.52
2018-08-22T23:46:19.866Z,71.10
2018-08-22T23:48:55.148Z,70.94
2018-08-22T23:51:24.272Z,69.77
2018-08-22T23:53:56.955Z,69.77
2018-08-22T23:56:30.266Z,70.18
2018-08-22T23:58:59.796Z,69.66
